Time;durP1;ratioP1;P1;durP2;ratioP2;P2;SDS_P1;SDS_P2;PMS_P1;PMS_P2;Temp;Humidity;BMP_temperature;BMP_pressure;BME280_temperature;BME280_humidity;BME280_pressure;Samples;Min_cycle;Max_cycle;Signal;HPM_P1;HPM_P2
2020/12/11 00:01:05;;;;;;;24.45;16.08;;;;;;;;;;4899767;29;20090;-68
2020/12/11 00:03:31;;;;;;;21.55;13.43;;;;;;;;;;4901445;29;20052;-67
2020/12/11 00:05:57;;;;;;;23.70;14.48;;;;;;;;;;4900705;29;20056;-68
2020/12/11 00:08:23;;;;;;;22.00;14.98;;;;;;;;;;4901135;29;20055;-67
2020/12/11 00:10:49;;;;;;;24.60;14.65;;;;;;;;;;4884082;29;20060;-69
2020/12/11 00:13:16;;;;;;;22.48;14.90;;;;;;;;;;4913389;29;20048;-67
2020/12/11 00:15:42;;;;;;;22.60;14.68;;;;;;;;;;4897225;29;20057;-67
2020/12/11 00:18:08;;;;;;;22.02;14.35;;;;;;;;;;4913599;29;20415;-68
2020/12/11 00:20:34;;;;;;;24.20;15.52;;;;;;;;;;4928503;29;20067;-67
2020/12/11 00:23:04;;;;;;;23.45;14.85;;;;;;;;;;4900769;29;20052;-67
2020/12/11 00:25:31;;;;;;;25.50;15.13;;;;;;;;;;4931702;29;20072;-66
2020/12/11 00:27:57;;;;;;;22.63;14.20;;;;;;;;;;4901011;29;20135;-68
2020/12/11 00:30:23;;;;;;;22.55;15.75;;;;;;;;;;4887093;29;20048;-68
2020/12/11 00:32:49;;;;;;;26.15;15.75;;;;;;;;;;4897619;29;20057;-68
2020/12/11 00:35:15;;;;;;;23.92;15.27;;;;;;;;;;4912173;29;20049;-68
2020/12/11 00:37:43;;;;;;;23.70;14.20;;;;;;;;;;4897376;29;20053;-67
2020/12/11 00:40:09;;;;;;;24.70;15.75;;;;;;;;;;4908388;29;20400;-67
2020/12/11 00:42:35;;;;;;;21.67;14.55;;;;;;;;;;4900734;29;20055;-67
2020/12/11 00:45:02;;;;;;;24.83;15.70;;;;;;;;;;4900480;29;20048;-67
2020/12/11 00:47:28;;;;;;;22.73;14.30;;;;;;;;;;4897150;29;20072;-65
2020/12/11 00:49:54;;;;;;;24.80;14.52;;;;;;;;;;4897398;29;20048;-66
2020/12/11 00:52:20;;;;;;;23.60;15.68;;;;;;;;;;4912867;29;20045;-67
2020/12/11 00:54:46;;;;;;;22.17;14.73;;;;;;;;;;4897250;29;20052;-67
2020/12/11 00:57:13;;;;;;;21.30;13.75;;;;;;;;;;4896487;29;20060;-68
2020/12/11 00:59:39;;;;;;;20.65;14.52;;;;;;;;;;4900380;29;20078;-68
2020/12/11 01:02:06;;;;;;;23.35;13.88;;;;;;;;;;4883049;29;20453;-67
2020/12/11 01:04:32;;;;;;;18.77;13.23;;;;;;;;;;4897170;29;20048;-66
2020/12/11 01:06:58;;;;;;;19.95;13.00;;;;;;;;;;4912070;29;20060;-67
2020/12/11 01:09:24;;;;;;;19.20;13.63;;;;;;;;;;4914093;29;20071;-68
2020/12/11 01:11:50;;;;;;;18.33;12.57;;;;;;;;;;4931598;29;20051;-67
2020/12/11 01:14:16;;;;;;;24.10;14.05;;;;;;;;;;4900009;29;20048;-67
2020/12/11 01:16:44;;;;;;;18.20;12.43;;;;;;;;;;4899574;29;20063;-67
2020/12/11 01:19:11;;;;;;;19.17;12.02;;;;;;;;;;4915019;29;20171;-68
2020/12/11 01:21:37;;;;;;;18.17;12.35;;;;;;;;;;4899855;29;20060;-68
2020/12/11 01:24:04;;;;;;;17.35;11.70;;;;;;;;;;4899573;29;20048;-68
2020/12/11 01:26:30;;;;;;;18.90;12.32;;;;;;;;;;4899716;29;20379;-67
2020/12/11 01:28:56;;;;;;;16.98;11.95;;;;;;;;;;4886460;29;20385;-67
2020/12/11 01:31:22;;;;;;;15.90;11.95;;;;;;;;;;4912006;29;20056;-68
2020/12/11 01:33:49;;;;;;;16.52;11.40;;;;;;;;;;4896531;29;20055;-67
2020/12/11 01:36:25;;;;;;;16.33;12.50;;;;;;;;;;4895829;29;20055;-67
2020/12/11 01:38:51;;;;;;;18.92;12.13;;;;;;;;;;4908466;29;20551;-67
2020/12/11 01:41:18;;;;;;;16.15;12.07;;;;;;;;;;4899585;29;20055;-67
2020/12/11 01:43:45;;;;;;;17.13;11.18;;;;;;;;;;4899416;29;20052;-67
2020/12/11 01:46:18;;;;;;;17.67;12.07;;;;;;;;;;4898858;29;20048;-67
2020/12/11 01:48:47;;;;;;;19.92;12.90;;;;;;;;;;4888163;29;20063;-68
2020/12/11 01:51:13;;;;;;;16.90;11.90;;;;;;;;;;4896154;29;20519;-68
2020/12/11 01:53:46;;;;;;;15.95;10.80;;;;;;;;;;4896146;29;20067;-68
2020/12/11 01:56:15;;;;;;;12.75;10.23;;;;;;;;;;4895069;29;20056;-67
2020/12/11 01:58:43;;;;;;;13.65;9.60;;;;;;;;;;4922238;29;20056;-67
2020/12/11 02:01:09;;;;;;;15.00;11.35;;;;;;;;;;4914971;29;20293;-67
2020/12/11 02:03:36;;;;;;;15.65;10.88;;;;;;;;;;4899413;29;20052;-67
2020/12/11 02:06:02;;;;;;;15.18;10.80;;;;;;;;;;4898578;29;20403;-67
2020/12/11 02:08:28;;;;;;;15.60;11.57;;;;;;;;;;4889426;29;20051;-67
2020/12/11 02:10:54;;;;;;;14.73;10.82;;;;;;;;;;4880618;29;20060;-67
2020/12/11 02:13:20;;;;;;;16.27;12.07;;;;;;;;;;4897145;29;20084;-66
2020/12/11 02:15:46;;;;;;;15.52;10.52;;;;;;;;;;4910757;29;20049;-68
2020/12/11 02:18:13;;;;;;;13.23;10.55;;;;;;;;;;4911198;29;20061;-67
2020/12/11 02:20:39;;;;;;;14.88;10.48;;;;;;;;;;4896938;29;20060;-68
2020/12/11 02:23:05;;;;;;;16.35;11.88;;;;;;;;;;4911319;29;20054;-67
2020/12/11 02:25:31;;;;;;;14.07;10.23;;;;;;;;;;4895142;29;20056;-67
2020/12/11 02:27:58;;;;;;;16.15;11.77;;;;;;;;;;4912360;29;20052;-68
2020/12/11 02:30:24;;;;;;;15.63;10.57;;;;;;;;;;4898978;29;20048;-67
2020/12/11 02:32:50;;;;;;;16.02;11.32;;;;;;;;;;4898890;29;20056;-66
2020/12/11 02:35:16;;;;;;;15.52;11.48;;;;;;;;;;4929295;29;20055;-68
2020/12/11 02:37:42;;;;;;;14.73;11.32;;;;;;;;;;4886045;29;20048;-68
2020/12/11 02:40:08;;;;;;;15.65;11.38;;;;;;;;;;4910784;29;20057;-67
2020/12/11 02:42:35;;;;;;;14.02;10.77;;;;;;;;;;4895669;29;20403;-66
2020/12/11 02:45:03;;;;;;;13.35;10.15;;;;;;;;;;4898989;29;20055;-66
2020/12/11 02:47:32;;;;;;;14.25;10.30;;;;;;;;;;4898172;29;20055;-68
2020/12/11 02:50:00;;;;;;;14.88;10.63;;;;;;;;;;4884061;29;20131;-67
2020/12/11 02:52:27;;;;;;;16.77;11.60;;;;;;;;;;4898334;29;20495;-68
2020/12/11 02:54:53;;;;;;;17.73;11.55;;;;;;;;;;4895783;29;20079;-68
2020/12/11 02:57:19;;;;;;;17.33;11.98;;;;;;;;;;4894415;29;20063;-67
2020/12/11 02:59:45;;;;;;;19.85;11.82;;;;;;;;;;4895540;29;20056;-67
2020/12/11 03:02:11;;;;;;;18.73;12.77;;;;;;;;;;4895621;29;20061;-67
2020/12/11 03:04:38;;;;;;;17.73;12.38;;;;;;;;;;4909002;29;20059;-67
2020/12/11 03:07:04;;;;;;;19.10;13.48;;;;;;;;;;4898434;29;20044;-67
2020/12/11 03:09:30;;;;;;;17.90;12.45;;;;;;;;;;4898759;29;20128;-67
2020/12/11 03:11:56;;;;;;;20.42;13.65;;;;;;;;;;4898622;29;20068;-67
2020/12/11 03:14:22;;;;;;;21.15;13.65;;;;;;;;;;4903327;29;20051;-67
2020/12/11 03:16:49;;;;;;;21.58;13.00;;;;;;;;;;4894615;29;20056;-67
2020/12/11 03:19:15;;;;;;;21.38;13.77;;;;;;;;;;4910379;29;20462;-67
2020/12/11 03:21:42;;;;;;;21.52;13.43;;;;;;;;;;4898286;29;20052;-67
2020/12/11 03:24:08;;;;;;;19.77;12.57;;;;;;;;;;4907167;29;20487;-67
2020/12/11 03:26:34;;;;;;;19.40;13.35;;;;;;;;;;4901431;29;20056;-68
2020/12/11 03:29:00;;;;;;;21.15;14.50;;;;;;;;;;4901824;29;20068;-68
2020/12/11 03:31:27;;;;;;;21.30;13.32;;;;;;;;;;4902110;29;20052;-67
2020/12/11 03:33:53;;;;;;;23.92;13.93;;;;;;;;;;4894495;29;20112;-67
2020/12/11 03:36:20;;;;;;;21.23;13.93;;;;;;;;;;4898980;29;20056;-67
2020/12/11 03:38:48;;;;;;;21.90;13.38;;;;;;;;;;4898516;29;20435;-68
2020/12/11 03:41:15;;;;;;;21.70;13.98;;;;;;;;;;4898569;29;20052;-67
2020/12/11 03:43:42;;;;;;;25.30;14.85;;;;;;;;;;4903556;29;20059;-67
2020/12/11 03:46:08;;;;;;;22.35;14.70;;;;;;;;;;4900875;29;20063;-66
2020/12/11 03:48:35;;;;;;;26.10;14.57;;;;;;;;;;4918718;29;20123;-67
2020/12/11 03:51:01;;;;;;;24.10;13.93;;;;;;;;;;4901500;29;20059;-68
2020/12/11 03:57:14;;;;;;;24.60;14.48;;;;;;;;;;4982271;23;20113;-67
2020/12/11 03:59:40;;;;;;;26.38;14.77;;;;;;;;;;4974388;28;20105;-68
2020/12/11 04:02:07;;;;;;;22.73;14.57;;;;;;;;;;4974244;28;20074;-66
2020/12/11 04:04:33;;;;;;;25.13;15.30;;;;;;;;;;4974266;28;20046;-67
2020/12/11 04:06:59;;;;;;;26.80;16.52;;;;;;;;;;4973632;28;20051;-67
2020/12/11 04:09:25;;;;;;;28.67;16.98;;;;;;;;;;4974292;28;20050;-66
2020/12/11 04:11:51;;;;;;;25.85;16.15;;;;;;;;;;4973761;28;20157;-66
2020/12/11 04:14:18;;;;;;;26.00;15.63;;;;;;;;;;4974051;28;20058;-68
2020/12/11 04:16:48;;;;;;;23.30;14.38;;;;;;;;;;4973337;28;20055;-66
2020/12/11 04:19:15;;;;;;;27.38;16.58;;;;;;;;;;4975259;28;20481;-67
2020/12/11 04:21:50;;;;;;;25.60;14.82;;;;;;;;;;4973867;28;20046;-69
2020/12/11 04:27:44;;;;;;;25.63;14.55;;;;;;;;;;4950683;23;20101;-67
2020/12/11 04:30:10;;;;;;;27.50;16.45;;;;;;;;;;4955475;28;20043;-68
2020/12/11 04:32:36;;;;;;;26.90;15.90;;;;;;;;;;4954864;28;20106;-67
2020/12/11 04:35:02;;;;;;;29.13;16.40;;;;;;;;;;4955354;28;20121;-68
2020/12/11 04:37:28;;;;;;;30.83;17.50;;;;;;;;;;4955001;28;20498;-67
2020/12/11 04:58:42;;;;;;;27.98;16.25;;;;;;;;;;4961598;23;20563;-68
2020/12/11 05:01:08;;;;;;;27.92;16.33;;;;;;;;;;4922028;29;20070;-68
2020/12/11 05:03:35;;;;;;;29.75;16.02;;;;;;;;;;4937870;29;20505;-67
2020/12/11 05:06:01;;;;;;;28.42;17.67;;;;;;;;;;4953406;29;20055;-68
2020/12/11 05:08:27;;;;;;;31.05;17.17;;;;;;;;;;4951893;28;20051;-68
2020/12/11 05:10:54;;;;;;;31.88;17.85;;;;;;;;;;4935359;29;20483;-68
2020/12/11 05:43:36;;;;;;;38.13;20.05;;;;;;;;;;4959158;23;20062;-67
2020/12/11 05:46:02;;;;;;;37.70;20.13;;;;;;;;;;4941777;29;20557;-68
2020/12/11 05:48:36;;;;;;;39.30;19.98;;;;;;;;;;4943554;29;20110;-69
2020/12/11 05:51:13;;;;;;;34.22;18.77;;;;;;;;;;4940433;29;20051;-67
2020/12/11 05:53:39;;;;;;;33.60;18.25;;;;;;;;;;4940034;29;20051;-69
2020/12/11 05:56:05;;;;;;;34.05;19.02;;;;;;;;;;4941708;29;20042;-67
2020/12/11 05:58:35;;;;;;;33.58;18.15;;;;;;;;;;4943838;29;20058;-68
2020/12/11 06:01:02;;;;;;;34.33;18.50;;;;;;;;;;4943496;29;20058;-68
2020/12/11 06:03:29;;;;;;;35.00;18.02;;;;;;;;;;4944413;29;20495;-67
2020/12/11 06:05:59;;;;;;;34.80;18.58;;;;;;;;;;4940783;29;20048;-67
2020/12/11 06:08:26;;;;;;;33.95;17.70;;;;;;;;;;4942502;29;20051;-67
2020/12/11 06:10:53;;;;;;;32.63;16.98;;;;;;;;;;4943864;29;20059;-68
2020/12/11 06:13:36;;;;;;;35.50;19.30;;;;;;;;;;4944636;28;20383;-68
2020/12/11 06:49:05;;;;;;;31.25;16.83;;;;;;;;;;4959554;23;20414;-68
2020/12/11 06:51:33;;;;;;;33.80;17.05;;;;;;;;;;4953145;28;20102;-67
2020/12/11 06:53:59;;;;;;;31.27;17.55;;;;;;;;;;4953340;28;20106;-68
2020/12/11 06:56:38;;;;;;;30.35;17.00;;;;;;;;;;4956316;28;20043;-68
2020/12/11 06:59:26;;;;;;;35.22;18.23;;;;;;;;;;4957059;28;20545;-68
2020/12/11 07:01:53;;;;;;;35.35;17.95;;;;;;;;;;4957675;28;20047;-67
2020/12/11 07:04:56;;;;;;;33.67;18.33;;;;;;;;;;4956756;28;20051;-67
2020/12/11 07:07:29;;;;;;;32.92;17.02;;;;;;;;;;4967737;23;20508;-68
2020/12/11 07:09:55;;;;;;;30.20;16.95;;;;;;;;;;4956147;29;20055;-67
2020/12/11 07:12:21;;;;;;;32.22;16.48;;;;;;;;;;4955783;29;20051;-67
2020/12/11 07:14:48;;;;;;;30.15;16.10;;;;;;;;;;4955876;29;20051;-68
2020/12/11 07:17:27;;;;;;;33.17;16.83;;;;;;;;;;4955119;29;20480;-67
2020/12/11 07:53:32;;;;;;;29.17;15.55;;;;;;;;;;4895726;29;20068;-64
2020/12/11 07:55:58;;;;;;;34.47;17.15;;;;;;;;;;4896500;29;20131;-63
2020/12/11 07:58:25;;;;;;;30.98;16.15;;;;;;;;;;4897178;29;20049;-65
2020/12/11 08:00:51;;;;;;;31.65;17.27;;;;;;;;;;4897234;29;20119;-63
2020/12/11 08:03:17;;;;;;;34.65;18.58;;;;;;;;;;4895868;29;20136;-66
2020/12/11 08:05:43;;;;;;;31.35;17.27;;;;;;;;;;4896151;29;20090;-65
2020/12/11 08:08:59;;;;;;;31.85;17.13;;;;;;;;;;4897440;29;20283;-64
2020/12/11 08:11:26;;;;;;;35.38;18.40;;;;;;;;;;4897119;29;20060;-64
2020/12/11 08:14:00;;;;;;;33.00;18.70;;;;;;;;;;4895912;29;20076;-65
2020/12/11 08:16:28;;;;;;;30.70;17.67;;;;;;;;;;4876545;29;20053;-66
2020/12/11 08:18:55;;;;;;;37.58;18.50;;;;;;;;;;4878263;29;20483;-67
2020/12/11 08:21:31;;;;;;;34.25;17.92;;;;;;;;;;4892500;29;20100;-67
2020/12/11 08:23:58;;;;;;;30.35;16.25;;;;;;;;;;4895160;29;20053;-64
2020/12/11 08:26:26;;;;;;;28.55;16.17;;;;;;;;;;4896128;29;20061;-65
2020/12/11 08:29:05;;;;;;;29.75;16.85;;;;;;;;;;4895191;29;20332;-65
2020/12/11 08:31:39;;;;;;;29.98;16.95;;;;;;;;;;4895537;29;20088;-66
2020/12/11 08:34:06;;;;;;;27.50;16.25;;;;;;;;;;4895501;29;20049;-65
2020/12/11 08:36:34;;;;;;;27.38;16.02;;;;;;;;;;4894751;29;20431;-66
2020/12/11 08:39:05;;;;;;;25.55;15.05;;;;;;;;;;4880096;29;20411;-63
2020/12/11 08:41:33;;;;;;;25.80;15.13;;;;;;;;;;4876119;29;20496;-63
2020/12/11 08:44:01;;;;;;;26.48;15.55;;;;;;;;;;4877001;29;20053;-64
2020/12/11 08:46:47;;;;;;;28.35;15.77;;;;;;;;;;4876202;29;20384;-65
2020/12/11 08:49:19;;;;;;;25.98;15.10;;;;;;;;;;4876448;29;20104;-70
2020/12/11 08:51:45;;;;;;;26.10;14.17;;;;;;;;;;4887338;29;20707;-69
2020/12/11 08:54:12;;;;;;;25.48;15.25;;;;;;;;;;4887607;29;20411;-71
2020/12/11 08:56:46;;;;;;;26.88;16.48;;;;;;;;;;4888323;29;20408;-71
2020/12/11 08:59:12;;;;;;;25.38;15.35;;;;;;;;;;4870078;29;20049;-65
2020/12/11 09:01:41;;;;;;;22.13;13.95;;;;;;;;;;4888264;29;20048;-65
2020/12/11 09:04:08;;;;;;;24.33;14.73;;;;;;;;;;4883230;29;20504;-65
2020/12/11 09:06:34;;;;;;;26.80;16.60;;;;;;;;;;4886249;29;20060;-64
2020/12/11 09:09:01;;;;;;;22.27;14.65;;;;;;;;;;4889243;29;20067;-64
2020/12/11 09:11:27;;;;;;;22.45;14.07;;;;;;;;;;4885641;29;20075;-65
2020/12/11 09:13:54;;;;;;;23.48;13.73;;;;;;;;;;4886250;29;20053;-64
2020/12/11 09:16:20;;;;;;;23.50;14.75;;;;;;;;;;4869181;29;20061;-65
2020/12/11 09:18:48;;;;;;;24.13;13.88;;;;;;;;;;4877650;29;20052;-65
2020/12/11 09:21:14;;;;;;;27.23;14.57;;;;;;;;;;4882596;29;20664;-65
2020/12/11 09:23:41;;;;;;;28.45;15.40;;;;;;;;;;4877865;29;20049;-65
2020/12/11 09:26:07;;;;;;;24.27;14.93;;;;;;;;;;4881886;29;20052;-65
2020/12/11 09:28:33;;;;;;;23.00;14.32;;;;;;;;;;4898541;29;20401;-65
2020/12/11 09:30:59;;;;;;;23.00;14.60;;;;;;;;;;4899952;29;20078;-65
2020/12/11 09:33:28;;;;;;;21.90;14.35;;;;;;;;;;4889610;29;20156;-65
2020/12/11 09:35:57;;;;;;;21.83;13.43;;;;;;;;;;4881313;29;20060;-65
2020/12/11 09:38:23;;;;;;;21.35;13.88;;;;;;;;;;4885008;29;20060;-65
2020/12/11 09:40:56;;;;;;;23.52;13.80;;;;;;;;;;4882434;29;20121;-65
2020/12/11 09:43:43;;;;;;;22.27;13.38;;;;;;;;;;4876544;29;20061;-65
2020/12/11 09:59:29;;;;;;;21.98;12.23;;;;;;;;;;4930371;29;20056;-65
2020/12/11 10:04:27;;;;;;;25.07;13.33;;;;;;;;;;4935175;29;20063;-65
2020/12/11 10:06:53;;;;;;;21.40;12.45;;;;;;;;;;4917359;29;20052;-65
2020/12/11 10:09:19;;;;;;;20.92;12.57;;;;;;;;;;4933563;29;20066;-65
2020/12/11 10:11:49;;;;;;;21.70;12.77;;;;;;;;;;4918111;29;20059;-65
2020/12/11 10:14:23;;;;;;;20.58;12.10;;;;;;;;;;4917562;29;20051;-65
2020/12/11 10:16:53;;;;;;;19.63;11.93;;;;;;;;;;4932905;29;20048;-65
2020/12/11 10:19:23;;;;;;;18.90;11.80;;;;;;;;;;4933213;29;20055;-65
2020/12/11 10:21:49;;;;;;;20.23;12.35;;;;;;;;;;4917868;29;20066;-65
2020/12/11 10:24:16;;;;;;;20.23;12.65;;;;;;;;;;4933302;29;20463;-65
2020/12/11 10:26:42;;;;;;;17.58;10.50;;;;;;;;;;4933040;29;20047;-65
2020/12/11 10:29:09;;;;;;;19.63;12.25;;;;;;;;;;4932670;29;20051;-65
2020/12/11 10:31:35;;;;;;;21.17;12.32;;;;;;;;;;4917821;29;20052;-65
2020/12/11 10:34:02;;;;;;;24.50;12.82;;;;;;;;;;4917647;29;20044;-65
2020/12/11 10:36:32;;;;;;;22.48;13.50;;;;;;;;;;4932195;29;20047;-65
2020/12/11 10:38:58;;;;;;;22.85;13.18;;;;;;;;;;4917961;29;20060;-65
2020/12/11 10:41:25;;;;;;;19.95;11.82;;;;;;;;;;4933280;29;20055;-65
2020/12/11 10:43:52;;;;;;;19.35;11.40;;;;;;;;;;4934340;29;20490;-65
2020/12/11 10:46:18;;;;;;;20.98;11.68;;;;;;;;;;4931948;29;20410;-65
2020/12/11 10:48:45;;;;;;;19.23;11.35;;;;;;;;;;4917608;29;20143;-65
2020/12/11 10:51:15;;;;;;;18.33;11.23;;;;;;;;;;4932279;29;20052;-66
2020/12/11 10:53:43;;;;;;;16.70;10.35;;;;;;;;;;4917795;29;20079;-65
2020/12/11 10:56:10;;;;;;;17.48;9.70;;;;;;;;;;4915304;29;20052;-65
2020/12/11 10:58:37;;;;;;;19.33;11.55;;;;;;;;;;4917323;29;20606;-65
2020/12/11 11:01:07;;;;;;;19.08;11.50;;;;;;;;;;4902674;29;20079;-65
2020/12/11 11:03:34;;;;;;;17.83;11.38;;;;;;;;;;4903581;29;20144;-65
2020/12/11 11:11:46;;;;;;;18.45;12.15;;;;;;;;;;4921231;29;20088;-65
2020/12/11 11:27:53;;;;;;;18.27;10.90;;;;;;;;;;4912351;29;20303;-65
2020/12/11 11:29:43;;;;;;;20.45;11.07;;;;;;;;;;4929259;29;20056;-65
2020/12/11 11:32:10;;;;;;;17.50;10.55;;;;;;;;;;4924180;29;20081;-65
2020/12/11 11:34:37;;;;;;;16.55;10.95;;;;;;;;;;4925215;29;20059;-65
2020/12/11 11:37:03;;;;;;;17.80;11.23;;;;;;;;;;4942503;29;20039;-65
2020/12/11 11:39:29;;;;;;;17.65;12.23;;;;;;;;;;4924310;29;20045;-65
2020/12/11 11:41:56;;;;;;;17.40;11.07;;;;;;;;;;4941929;29;20055;-65
2020/12/11 11:46:51;;;;;;;18.38;11.15;;;;;;;;;;4942122;29;20258;-65
2020/12/11 11:49:27;;;;;;;19.75;12.07;;;;;;;;;;4941416;29;20475;-65
2020/12/11 11:54:26;;;;;;;20.25;12.20;;;;;;;;;;4944168;29;20406;-65
2020/12/11 11:56:52;;;;;;;17.30;11.98;;;;;;;;;;4930206;29;20066;-65
2020/12/11 11:59:18;;;;;;;22.95;12.68;;;;;;;;;;4940955;29;20051;-65
2020/12/11 12:01:44;;;;;;;20.20;12.80;;;;;;;;;;4943915;29;20079;-65
2020/12/11 12:04:11;;;;;;;20.25;12.65;;;;;;;;;;4940801;29;20062;-65
2020/12/11 12:06:37;;;;;;;20.88;12.75;;;;;;;;;;4928067;29;20067;-65
2020/12/11 12:09:04;;;;;;;20.15;12.98;;;;;;;;;;4944291;29;20054;-65
2020/12/11 12:11:30;;;;;;;23.55;13.18;;;;;;;;;;4946088;29;20047;-65
2020/12/11 12:13:57;;;;;;;23.35;13.65;;;;;;;;;;4943688;29;20151;-65
2020/12/11 12:16:23;;;;;;;20.58;12.75;;;;;;;;;;4911960;29;20059;-65
2020/12/11 12:18:55;;;;;;;21.08;12.30;;;;;;;;;;4931147;29;20502;-65
2020/12/11 12:21:33;;;;;;;20.23;13.07;;;;;;;;;;4940801;29;20506;-65
2020/12/11 12:28:58;;;;;;;23.75;14.27;;;;;;;;;;4893223;29;20053;-63
2020/12/11 12:31:40;;;;;;;25.52;13.38;;;;;;;;;;4877503;29;20052;-63
2020/12/11 12:34:34;;;;;;;21.75;13.23;;;;;;;;;;4887526;29;20059;-63
2020/12/11 12:45:10;;;;;;;22.95;13.15;;;;;;;;;;4891935;29;20044;-64
2020/12/11 12:47:37;;;;;;;26.13;13.40;;;;;;;;;;4893689;29;20057;-63
2020/12/11 12:50:05;;;;;;;24.48;13.25;;;;;;;;;;4892468;29;20057;-63
2020/12/11 12:52:31;;;;;;;19.88;12.05;;;;;;;;;;4892420;29;20049;-62
2020/12/11 12:54:58;;;;;;;21.95;13.40;;;;;;;;;;4885607;29;20060;-63
2020/12/11 13:00:01;;;;;;;21.23;12.65;;;;;;;;;;4893873;29;20392;-63
2020/12/11 13:05:08;;;;;;;19.20;11.75;;;;;;;;;;4894856;29;20041;-67
2020/12/11 13:07:37;;;;;;;17.73;10.70;;;;;;;;;;4885117;29;20222;-68
2020/12/11 13:10:05;;;;;;;17.80;11.43;;;;;;;;;;4895164;29;20059;-68
2020/12/11 13:12:31;;;;;;;17.13;11.02;;;;;;;;;;4869332;29;20049;-63
2020/12/11 13:14:58;;;;;;;20.25;10.80;;;;;;;;;;4888555;29;20083;-63
2020/12/11 13:17:24;;;;;;;19.40;10.88;;;;;;;;;;4894002;29;20395;-63
2020/12/11 13:19:51;;;;;;;23.83;11.63;;;;;;;;;;4899463;29;20048;-63
2020/12/11 13:27:32;;;;;;;19.05;12.02;;;;;;;;;;4895258;29;20055;-62
2020/12/11 13:29:58;;;;;;;24.67;12.60;;;;;;;;;;4877807;29;20414;-63
2020/12/11 13:32:28;;;;;;;20.75;11.80;;;;;;;;;;4893624;29;20078;-63
2020/12/11 13:34:55;;;;;;;18.27;11.15;;;;;;;;;;4894313;29;20511;-63
2020/12/11 13:37:23;;;;;;;18.50;11.50;;;;;;;;;;4893249;29;20078;-63
2020/12/11 13:39:49;;;;;;;19.70;11.57;;;;;;;;;;4894021;29;20045;-63
2020/12/11 13:42:15;;;;;;;21.05;11.75;;;;;;;;;;4893130;29;20067;-62
2020/12/11 13:44:42;;;;;;;22.23;12.55;;;;;;;;;;4884742;29;20156;-62
2020/12/11 13:47:08;;;;;;;22.35;12.20;;;;;;;;;;4892817;29;20048;-62
2020/12/11 13:49:35;;;;;;;18.48;11.68;;;;;;;;;;4892301;29;20049;-63
2020/12/11 13:52:01;;;;;;;20.15;12.63;;;;;;;;;;4893849;29;20060;-62
2020/12/11 13:54:28;;;;;;;25.58;13.38;;;;;;;;;;4894013;29;20114;-63
2020/12/11 13:56:54;;;;;;;23.58;13.13;;;;;;;;;;4893206;29;20447;-64
2020/12/11 13:59:21;;;;;;;22.65;12.80;;;;;;;;;;4893304;29;20052;-62
2020/12/11 14:01:48;;;;;;;18.80;11.35;;;;;;;;;;4892318;29;20579;-61
2020/12/11 14:04:16;;;;;;;18.85;11.07;;;;;;;;;;4876419;29;20325;-61
2020/12/11 14:06:42;;;;;;;19.95;12.02;;;;;;;;;;4892921;29;20048;-61
2020/12/11 14:09:11;;;;;;;28.73;11.85;;;;;;;;;;4877222;29;20049;-61
2020/12/11 14:11:37;;;;;;;24.38;12.15;;;;;;;;;;4892489;29;20048;-62
2020/12/11 14:14:03;;;;;;;21.15;11.85;;;;;;;;;;4892377;29;20057;-62
2020/12/11 14:16:48;;;;;;;22.95;12.73;;;;;;;;;;4893083;29;20052;-62
2020/12/11 14:24:13;;;;;;;17.95;11.02;;;;;;;;;;4893516;29;20048;-62
2020/12/11 14:26:45;;;;;;;16.95;9.73;;;;;;;;;;4885426;29;20060;-62
2020/12/11 14:29:12;;;;;;;14.65;9.85;;;;;;;;;;4883091;29;20052;-62
2020/12/11 14:31:38;;;;;;;18.42;12.00;;;;;;;;;;4892544;29;20064;-62
2020/12/11 14:34:04;;;;;;;16.77;9.50;;;;;;;;;;4893159;29;20052;-62
2020/12/11 14:36:31;;;;;;;17.33;9.90;;;;;;;;;;4892848;29;20048;-62
2020/12/11 14:39:00;;;;;;;14.63;8.98;;;;;;;;;;4893487;29;20499;-62
2020/12/11 14:41:27;;;;;;;13.52;8.73;;;;;;;;;;4892629;29;20522;-62
2020/12/11 14:43:53;;;;;;;16.98;9.52;;;;;;;;;;4877008;29;20048;-62
2020/12/11 14:46:23;;;;;;;15.55;8.55;;;;;;;;;;4891925;29;20060;-62
2020/12/11 14:48:51;;;;;;;14.45;8.90;;;;;;;;;;4890307;29;20049;-62
2020/12/11 14:51:17;;;;;;;13.70;7.55;;;;;;;;;;4892007;29;20135;-62
2020/12/11 14:53:43;;;;;;;12.02;8.00;;;;;;;;;;4877281;29;20064;-61
2020/12/11 14:56:10;;;;;;;14.65;9.07;;;;;;;;;;4892056;29;20116;-62
2020/12/11 14:58:37;;;;;;;13.82;8.35;;;;;;;;;;4884834;29;20048;-62
2020/12/11 15:01:03;;;;;;;16.50;8.45;;;;;;;;;;4890556;29;20077;-62
2020/12/11 15:03:30;;;;;;;14.80;9.13;;;;;;;;;;4892393;29;20056;-60
2020/12/11 15:05:57;;;;;;;15.10;9.48;;;;;;;;;;4892484;29;20535;-62
2020/12/11 15:08:23;;;;;;;19.23;9.32;;;;;;;;;;4890811;29;20567;-62
2020/12/11 15:10:49;;;;;;;15.30;8.75;;;;;;;;;;4892918;29;20059;-62
2020/12/11 15:13:16;;;;;;;16.15;9.57;;;;;;;;;;4882756;29;20049;-62
2020/12/11 15:15:42;;;;;;;14.27;8.48;;;;;;;;;;4893714;29;20064;-62
2020/12/11 15:18:09;;;;;;;13.25;8.00;;;;;;;;;;4886666;29;20152;-62
2020/12/11 15:20:35;;;;;;;18.27;10.30;;;;;;;;;;4896740;29;20060;-65
2020/12/11 15:23:01;;;;;;;18.45;10.00;;;;;;;;;;4896438;29;20041;-62
2020/12/11 15:25:27;;;;;;;21.65;11.45;;;;;;;;;;4880597;29;20056;-65
2020/12/11 15:27:53;;;;;;;17.65;10.52;;;;;;;;;;4896671;29;20045;-65
2020/12/11 15:30:20;;;;;;;17.80;11.15;;;;;;;;;;4887362;29;20052;-67
2020/12/11 15:32:46;;;;;;;17.90;10.55;;;;;;;;;;4896125;29;20088;-68
2020/12/11 15:35:12;;;;;;;22.45;12.20;;;;;;;;;;4892028;29;20073;-66
2020/12/11 15:37:38;;;;;;;24.23;11.75;;;;;;;;;;4895861;29;20048;-64
2020/12/11 15:40:04;;;;;;;25.90;10.95;;;;;;;;;;4888881;29;20049;-64
2020/12/11 15:42:31;;;;;;;20.17;11.82;;;;;;;;;;4894980;29;20048;-63
2020/12/11 15:44:57;;;;;;;18.05;10.02;;;;;;;;;;4894830;29;20140;-64
2020/12/11 15:47:23;;;;;;;15.52;9.23;;;;;;;;;;4886354;29;20052;-64
2020/12/11 15:49:50;;;;;;;15.27;8.98;;;;;;;;;;4896597;29;20271;-63
2020/12/11 15:52:17;;;;;;;16.30;8.93;;;;;;;;;;4886435;29;20083;-63
2020/12/11 15:54:44;;;;;;;13.68;8.65;;;;;;;;;;4886196;29;20339;-65
2020/12/11 15:57:12;;;;;;;14.50;8.73;;;;;;;;;;4892615;29;20048;-66
2020/12/11 15:59:38;;;;;;;13.85;8.52;;;;;;;;;;4894209;29;20128;-64
2020/12/11 16:02:06;;;;;;;12.52;8.52;;;;;;;;;;4894551;29;20402;-63
2020/12/11 16:04:33;;;;;;;11.70;7.10;;;;;;;;;;4878843;29;20057;-63
2020/12/11 16:07:00;;;;;;;13.68;6.80;;;;;;;;;;4878593;29;20483;-63
2020/12/11 16:09:26;;;;;;;11.18;6.40;;;;;;;;;;4878084;29;20557;-65
2020/12/11 16:11:56;;;;;;;9.77;6.38;;;;;;;;;;4894229;29;20522;-64
2020/12/11 16:14:26;;;;;;;9.07;5.15;;;;;;;;;;4894410;29;20059;-65
2020/12/11 16:16:54;;;;;;;7.72;4.03;;;;;;;;;;4893920;29;20056;-68
2020/12/11 16:19:21;;;;;;;6.28;4.13;;;;;;;;;;4884668;29;20056;-65
2020/12/11 16:21:47;;;;;;;7.45;5.15;;;;;;;;;;4887091;29;20091;-65
2020/12/11 16:24:13;;;;;;;8.00;5.68;;;;;;;;;;4887630;29;20048;-66
2020/12/11 16:26:40;;;;;;;9.95;6.57;;;;;;;;;;4894647;29;20123;-67
2020/12/11 16:29:07;;;;;;;10.18;5.93;;;;;;;;;;4895230;29;20155;-67
2020/12/11 16:31:33;;;;;;;10.70;6.15;;;;;;;;;;4894553;29;20407;-68
2020/12/11 16:34:04;;;;;;;7.35;5.43;;;;;;;;;;4895847;29;20108;-69
2020/12/11 16:36:31;;;;;;;8.43;5.30;;;;;;;;;;4895053;29;20055;-68
2020/12/11 16:38:57;;;;;;;7.13;4.72;;;;;;;;;;4896390;29;20056;-69
2020/12/11 16:42:01;;;;;;;7.65;5.28;;;;;;;;;;4890220;29;20107;-69
2020/12/11 16:47:13;;;;;;;7.18;4.90;;;;;;;;;;4895387;29;20086;-68
2020/12/11 16:49:45;;;;;;;7.93;4.38;;;;;;;;;;4892341;29;20056;-68
2020/12/11 16:52:44;;;;;;;8.32;4.93;;;;;;;;;;4894454;29;20380;-69
2020/12/11 16:55:21;;;;;;;6.40;4.22;;;;;;;;;;4898680;29;20048;-68
2020/12/11 16:57:49;;;;;;;8.73;5.47;;;;;;;;;;4893149;29;20245;-66
2020/12/11 17:00:21;;;;;;;12.07;7.18;;;;;;;;;;4907598;29;20047;-70
2020/12/11 17:06:01;;;;;;;15.93;8.77;;;;;;;;;;4893569;29;20048;-69
2020/12/11 17:08:35;;;;;;;16.92;10.32;;;;;;;;;;4893086;29;20088;-69
2020/12/11 17:11:09;;;;;;;18.55;9.57;;;;;;;;;;4878111;29;20084;-69
2020/12/11 17:13:36;;;;;;;;;;;;;;;;;;4892445;29;20056;-68
2020/12/11 17:16:06;;;;;;;15.77;8.57;;;;;;;;;;4907070;29;20008;-68
2020/12/11 17:18:39;;;;;;;17.50;9.95;;;;;;;;;;4894026;29;20411;-67
2020/12/11 17:21:08;;;;;;;17.23;9.50;;;;;;;;;;4867662;29;20108;-68
2020/12/11 17:23:49;;;;;;;15.80;9.27;;;;;;;;;;4885155;29;20147;-68
2020/12/11 17:26:29;;;;;;;22.00;13.05;;;;;;;;;;4895572;29;20068;-69
2020/12/11 17:29:12;;;;;;;22.70;12.80;;;;;;;;;;4864795;29;20049;-68
2020/12/11 17:34:23;;;;;;;16.65;10.18;;;;;;;;;;4882303;29;20135;-69
2020/12/11 17:36:50;;;;;;;18.17;9.95;;;;;;;;;;4877851;29;20062;-68
2020/12/11 17:39:19;;;;;;;14.07;8.98;;;;;;;;;;4892978;29;20061;-67
2020/12/11 17:41:50;;;;;;;14.10;8.15;;;;;;;;;;4893077;29;20491;-67
2020/12/11 17:44:21;;;;;;;13.20;8.43;;;;;;;;;;4891145;29;20071;-66
2020/12/11 17:46:48;;;;;;;14.88;9.05;;;;;;;;;;4888375;29;20059;-69